createdAt,value
2019-03-29T00:01:28.390Z,102722.85
2019-03-29T00:04:17.223Z,102722.48
2019-03-29T00:07:06.132Z,102721.34
2019-03-29T00:09:48.287Z,102717.27
2019-03-29T00:12:37.122Z,102728.37
2019-03-29T00:15:25.952Z,102729.13
2019-03-29T00:18:14.816Z,102724.52
2019-03-29T00:21:03.644Z,102728.47
2019-03-29T00:24:05.961Z,102728.02
2019-03-29T00:26:43.080Z,102734.41
2019-03-29T00:29:31.908Z,102728.16
2019-03-29T00:32:20.755Z,102725.04
2019-03-29T00:35:09.650Z,102732.45
2019-03-29T00:37:58.502Z,102721.70
2019-03-29T00:40:47.330Z,102723.63
2019-03-29T00:43:36.178Z,102723.14
2019-03-29T00:46:25.086Z,102720.84
2019-03-29T00:49:14.306Z,102721.17
2019-03-29T00:52:04.538Z,102720.72
2019-03-29T00:54:54.135Z,102713.97
2019-03-29T00:57:43.939Z,102715.16
2019-03-29T01:00:33.649Z,102710.43
2019-03-29T01:03:23.422Z,102703.73
2019-03-29T01:06:12.908Z,102707.17
2019-03-29T01:08:55.953Z,102701.53
2019-03-29T01:11:44.797Z,102698.86
2019-03-29T01:14:33.632Z,102691.31
2019-03-29T01:17:22.451Z,102698.47
2019-03-29T01:23:05.481Z,102692.61
2019-03-29T01:25:54.345Z,102695.88
2019-03-29T01:28:43.165Z,102684.17
2019-03-29T01:31:32.041Z,102681.00
2019-03-29T01:34:20.869Z,102678.33
2019-03-29T01:37:09.727Z,102676.82
2019-03-29T01:39:58.559Z,102674.61
2019-03-29T01:43:06.651Z,102676.03
2019-03-29T01:45:55.672Z,102675.95
2019-03-29T01:48:44.500Z,102672.56
2019-03-29T01:51:33.381Z,102669.72
2019-03-29T01:54:41.328Z,102668.55
2019-03-29T01:57:30.277Z,102668.52
2019-03-29T02:00:40.020Z,102655.77
2019-03-29T02:06:36.783Z,102657.63
2019-03-29T02:09:18.951Z,102649.11
2019-03-29T02:12:07.797Z,102651.98
2019-03-29T02:14:56.707Z,102649.95
2019-03-29T02:17:45.535Z,102643.25
2019-03-29T02:20:34.374Z,102644.91
2019-03-29T02:23:23.216Z,102636.23
2019-03-29T02:26:12.086Z,102637.03
2019-03-29T02:29:00.906Z,102632.50
2019-03-29T02:31:49.827Z,102627.27
2019-03-29T02:34:38.665Z,102625.19
2019-03-29T02:37:29.449Z,102622.11
2019-03-29T02:43:25.832Z,102617.24
2019-03-29T02:46:14.680Z,102606.78
2019-03-29T02:49:03.506Z,102604.14
2019-03-29T02:51:52.357Z,102601.48
2019-03-29T02:54:41.186Z,102604.32
2019-03-29T02:57:30.035Z,102612.61
2019-03-29T03:00:19.024Z,102609.38
2019-03-29T03:03:07.867Z,102614.42
2019-03-29T03:05:56.742Z,102615.96
2019-03-29T03:08:45.563Z,102616.33
2019-03-29T03:11:27.563Z,102623.70
2019-03-29T03:14:16.410Z,102618.83
2019-03-29T03:17:05.250Z,102619.91
2019-03-29T03:19:54.106Z,102619.11
2019-03-29T03:22:43.151Z,102608.75
2019-03-29T03:25:31.986Z,102613.94
2019-03-29T03:28:20.857Z,102612.65
2019-03-29T03:31:09.704Z,102607.56
2019-03-29T03:33:58.555Z,102610.72
2019-03-29T03:36:47.419Z,102616.76
2019-03-29T03:39:36.252Z,102609.26
2019-03-29T03:42:25.295Z,102612.41
2019-03-29T03:45:14.173Z,102609.87
2019-03-29T03:48:03.017Z,102608.41
2019-03-29T03:51:10.933Z,102612.33
2019-03-29T03:53:59.810Z,102610.63
2019-03-29T03:57:09.509Z,102609.73
2019-03-29T03:59:58.524Z,102609.17
2019-03-29T04:02:47.432Z,102612.89
2019-03-29T04:05:36.287Z,102611.82
2019-03-29T04:11:46.965Z,102618.38
2019-03-29T04:14:35.794Z,102616.22
2019-03-29T04:17:24.632Z,102612.54
2019-03-29T04:20:13.517Z,102611.98
2019-03-29T04:23:02.370Z,102612.32
2019-03-29T04:29:04.623Z,102608.17
2019-03-29T04:31:49.614Z,102610.31
2019-03-29T04:34:38.458Z,102611.23
2019-03-29T04:37:27.311Z,102612.45
2019-03-29T04:40:16.131Z,102610.09
2019-03-29T04:43:04.994Z,102608.08
2019-03-29T04:45:53.812Z,102615.53
2019-03-29T04:48:42.664Z,102613.88
2019-03-29T04:51:31.499Z,102613.37
2019-03-29T04:54:20.327Z,102611.07
2019-03-29T04:57:09.157Z,102606.05
2019-03-29T04:59:57.982Z,102609.74
2019-03-29T05:02:46.872Z,102607.44
2019-03-29T05:05:35.758Z,102604.08
2019-03-29T05:08:24.607Z,102608.33
2019-03-29T05:11:04.565Z,102603.82
2019-03-29T05:13:53.420Z,102603.66
2019-03-29T05:16:42.301Z,102604.33
2019-03-29T05:19:31.198Z,102604.80
2019-03-29T05:22:19.991Z,102594.29
2019-03-29T05:25:09.078Z,102596.53
2019-03-29T05:27:57.915Z,102599.27
2019-03-29T05:30:46.755Z,102596.77
2019-03-29T05:36:43.360Z,102588.01
2019-03-29T05:39:32.182Z,102592.47
2019-03-29T05:42:21.046Z,102595.18
2019-03-29T05:45:10.308Z,102590.97
2019-03-29T05:47:59.148Z,102590.81
2019-03-29T05:50:47.966Z,102585.30
2019-03-29T05:53:36.818Z,102591.96
2019-03-29T05:56:25.653Z,102582.72
2019-03-29T05:59:14.495Z,102588.40
2019-03-29T06:02:03.407Z,102586.88
2019-03-29T06:04:52.255Z,102588.41
2019-03-29T06:07:41.091Z,102589.59
2019-03-29T06:10:29.936Z,102591.73
2019-03-29T06:13:18.778Z,102586.96
2019-03-29T06:16:38.327Z,102593.22
2019-03-29T06:19:17.257Z,102587.31
2019-03-29T06:22:06.111Z,102589.79
2019-03-29T06:24:54.969Z,102591.05
2019-03-29T06:27:43.805Z,102590.09
2019-03-29T06:30:32.791Z,102590.53
2019-03-29T06:33:40.713Z,102590.52
2019-03-29T06:42:59.606Z,102594.35
2019-03-29T06:45:48.564Z,102594.35
2019-03-29T06:48:37.387Z,102591.02
2019-03-29T06:51:26.212Z,102592.87
2019-03-29T06:54:15.077Z,102597.84
2019-03-29T06:57:03.931Z,102601.88
2019-03-29T06:59:52.746Z,102604.86
2019-03-29T07:02:41.626Z,102600.79
2019-03-29T07:05:30.459Z,102605.56
2019-03-29T07:08:19.317Z,102605.87
2019-03-29T07:11:00.721Z,102609.98
2019-03-29T07:13:57.352Z,102602.34
2019-03-29T07:16:40.113Z,102603.39
2019-03-29T07:19:28.984Z,102600.90
2019-03-29T07:22:17.827Z,102596.05
2019-03-29T07:28:20.860Z,102591.32
2019-03-29T07:31:09.715Z,102594.21
2019-03-29T07:33:58.543Z,102596.17
2019-03-29T07:36:47.543Z,102587.20
2019-03-29T07:39:36.396Z,102591.02
2019-03-29T07:42:25.277Z,102591.97
2019-03-29T07:45:14.173Z,102595.80
2019-03-29T07:48:03.035Z,102596.09
2019-03-29T07:50:51.883Z,102599.63
2019-03-29T07:53:40.718Z,102593.40
2019-03-29T07:56:29.569Z,102589.94
2019-03-29T07:59:18.460Z,102593.36
2019-03-29T08:02:07.464Z,102581.70
2019-03-29T08:04:56.323Z,102587.50
2019-03-29T08:07:45.219Z,102583.59
2019-03-29T08:10:31.014Z,102588.92
2019-03-29T08:13:18.102Z,102578.55
2019-03-29T08:16:06.964Z,102585.81
2019-03-29T08:18:55.787Z,102574.91
2019-03-29T08:21:44.655Z,102582.20
2019-03-29T08:24:33.638Z,102584.20
2019-03-29T08:27:22.585Z,102574.90
2019-03-29T08:33:39.794Z,102571.41
2019-03-29T08:36:28.681Z,102570.83
2019-03-29T08:39:27.952Z,102561.78
2019-03-29T08:42:08.078Z,102567.62
2019-03-29T08:44:56.918Z,102563.98
2019-03-29T08:47:45.881Z,102560.52
2019-03-29T08:50:34.719Z,102557.62
2019-03-29T08:53:23.565Z,102560.12
2019-03-29T08:56:12.492Z,102562.39
2019-03-29T08:59:01.316Z,102550.03
2019-03-29T09:01:50.220Z,102552.58
2019-03-29T09:04:39.065Z,102548.05
2019-03-29T09:07:28.192Z,102549.48
2019-03-29T09:13:40.224Z,102547.83
2019-03-29T09:16:29.126Z,102544.17
2019-03-29T09:19:18.046Z,102539.86
2019-03-29T09:22:06.866Z,102531.44
2019-03-29T09:28:03.583Z,102530.82
2019-03-29T09:30:52.422Z,102534.13
2019-03-29T09:33:41.252Z,102532.56
2019-03-29T09:36:30.161Z,102533.59
2019-03-29T09:39:19.166Z,102525.42
2019-03-29T09:42:09.765Z,102524.09
2019-03-29T09:45:17.664Z,102517.95
2019-03-29T09:48:06.520Z,102514.64
2019-03-29T09:50:55.344Z,102505.88
2019-03-29T09:53:44.211Z,102514.80
2019-03-29T09:56:38.981Z,102502.27
2019-03-29T09:59:23.610Z,102502.09
2019-03-29T10:02:12.468Z,102491.53
2019-03-29T10:05:01.303Z,102489.67
2019-03-29T10:07:50.134Z,102491.73
2019-03-29T10:10:38.999Z,102482.61
2019-03-29T10:13:20.393Z,102483.47
2019-03-29T10:16:09.239Z,102477.82
2019-03-29T10:18:58.179Z,102470.68
2019-03-29T10:21:47.064Z,102470.94
2019-03-29T10:24:35.902Z,102464.77
2019-03-29T10:27:24.730Z,102457.67
2019-03-29T10:33:28.626Z,102449.88
2019-03-29T10:36:17.465Z,102444.75
2019-03-29T10:39:27.176Z,102444.16
2019-03-29T10:42:16.028Z,102434.54
2019-03-29T10:48:33.167Z,102432.18
2019-03-29T10:51:22.086Z,102425.42
2019-03-29T10:54:10.916Z,102428.53
2019-03-29T10:56:59.740Z,102423.26
2019-03-29T10:59:48.607Z,102421.12
2019-03-29T11:02:37.477Z,102421.29
2019-03-29T11:05:26.312Z,102410.55
2019-03-29T11:08:15.183Z,102410.92
2019-03-29T11:11:04.062Z,102400.00
2019-03-29T11:13:46.322Z,102402.55
2019-03-29T11:16:35.174Z,102396.06
2019-03-29T11:19:24.033Z,102396.30
2019-03-29T11:22:12.905Z,102385.20
2019-03-29T11:25:01.737Z,102382.03
2019-03-29T11:27:50.580Z,102382.23
2019-03-29T11:30:58.507Z,102376.18
2019-03-29T11:33:47.394Z,102373.62
2019-03-29T11:36:55.315Z,102358.72
2019-03-29T11:39:44.165Z,102353.34
2019-03-29T11:42:33.011Z,102343.96
2019-03-29T11:45:21.887Z,102341.63
2019-03-29T11:48:10.777Z,102333.53
2019-03-29T11:50:59.629Z,102336.52
2019-03-29T11:53:51.052Z,102329.17
2019-03-29T11:56:39.128Z,102321.69
2019-03-29T11:59:46.976Z,102320.00
2019-03-29T12:02:35.880Z,102319.61
2019-03-29T12:05:24.738Z,102312.99
2019-03-29T12:08:13.695Z,102314.45
2019-03-29T12:11:02.534Z,102315.37
2019-03-29T12:13:44.010Z,102311.97
2019-03-29T12:16:32.851Z,102305.47
2019-03-29T12:19:21.698Z,102300.95
2019-03-29T12:22:10.513Z,102293.72
2019-03-29T12:24:59.405Z,102301.38
2019-03-29T12:27:48.233Z,102291.92
2019-03-29T12:33:51.991Z,102286.42
2019-03-29T12:36:40.859Z,102266.08
2019-03-29T12:39:29.745Z,102270.36
2019-03-29T12:42:18.616Z,102266.79
2019-03-29T12:51:49.143Z,102247.59
2019-03-29T12:54:38.078Z,102240.30
2019-03-29T12:57:26.947Z,102246.20
2019-03-29T13:00:15.944Z,102235.83
2019-03-29T13:03:05.011Z,102225.13
2019-03-29T13:05:53.886Z,102220.05
2019-03-29T13:09:01.880Z,102214.44
2019-03-29T13:12:09.805Z,102216.17
2019-03-29T13:14:58.668Z,102218.82
2019-03-29T13:20:56.902Z,102206.66
2019-03-29T13:23:45.805Z,102197.09
2019-03-29T13:26:34.654Z,102192.20
2019-03-29T13:29:23.483Z,102187.31
2019-03-29T13:32:12.335Z,102180.38
2019-03-29T13:35:20.266Z,102182.50
2019-03-29T13:38:28.296Z,102181.80
2019-03-29T13:41:36.291Z,102181.77
2019-03-29T13:44:44.556Z,102170.23
2019-03-29T13:47:33.395Z,102164.10
2019-03-29T13:50:34.160Z,102160.48
2019-03-29T13:53:12.812Z,102159.13
2019-03-29T13:56:01.694Z,102156.69
2019-03-29T13:58:50.519Z,102147.11
2019-03-29T14:01:39.355Z,102138.69
2019-03-29T14:04:28.192Z,102127.52
2019-03-29T14:07:36.141Z,102128.45
2019-03-29T14:10:25.012Z,102126.68
2019-03-29T14:13:07.043Z,102127.25
2019-03-29T14:15:55.963Z,102117.20
2019-03-29T14:18:44.861Z,102108.13
2019-03-29T14:21:52.781Z,102104.12
2019-03-29T14:24:41.759Z,102093.56
2019-03-29T14:27:30.670Z,102099.16
2019-03-29T14:30:19.575Z,102091.58
2019-03-29T14:33:08.413Z,102087.30
2019-03-29T14:35:57.284Z,102088.97
2019-03-29T14:38:46.124Z,102081.80
2019-03-29T14:41:35.015Z,102076.88
2019-03-29T14:44:23.873Z,102073.02
2019-03-29T14:47:12.698Z,102076.91
2019-03-29T14:50:01.515Z,102065.62
2019-03-29T14:52:50.387Z,102063.05
2019-03-29T14:55:39.279Z,102058.27
2019-03-29T14:58:28.151Z,102058.53
2019-03-29T15:01:16.970Z,102050.77
2019-03-29T15:04:24.940Z,102056.54
2019-03-29T15:07:13.834Z,102055.25
2019-03-29T15:13:10.462Z,102040.91
2019-03-29T15:15:59.302Z,102035.78
2019-03-29T15:18:48.145Z,102034.45
2019-03-29T15:21:36.994Z,102035.06
2019-03-29T15:24:25.837Z,102026.77
2019-03-29T15:27:14.691Z,102024.30
2019-03-29T15:33:31.834Z,102010.64
2019-03-29T15:36:20.657Z,102005.61
2019-03-29T15:39:09.503Z,102006.22
2019-03-29T15:41:58.327Z,102001.02
2019-03-29T15:44:47.291Z,102000.51
2019-03-29T15:51:04.526Z,101993.43
2019-03-29T15:53:53.109Z,101988.72
2019-03-29T15:56:42.272Z,101988.88
2019-03-29T15:59:31.087Z,101983.82
2019-03-29T16:02:20.011Z,101981.27
2019-03-29T16:04:49.545Z,101985.98
2019-03-29T16:07:38.795Z,101974.42
2019-03-29T16:10:28.041Z,101976.14
2019-03-29T16:13:16.894Z,101971.56
2019-03-29T16:15:58.275Z,101960.48
2019-03-29T16:18:47.226Z,101967.30
2019-03-29T16:21:36.056Z,101962.39
2019-03-29T16:24:24.966Z,101953.38
2019-03-29T16:27:13.871Z,101949.66
2019-03-29T16:30:02.782Z,101949.00
2019-03-29T16:32:51.697Z,101949.52
2019-03-29T16:35:40.524Z,101951.51
2019-03-29T16:38:29.527Z,101950.67
2019-03-29T16:41:18.380Z,101953.28
2019-03-29T16:44:07.280Z,101949.96
2019-03-29T16:46:56.174Z,101948.19
2019-03-29T16:49:45.100Z,101950.52
2019-03-29T16:52:33.997Z,101941.16
2019-03-29T16:55:41.881Z,101941.41
2019-03-29T16:58:30.750Z,101940.45
2019-03-29T17:01:19.559Z,101939.42
2019-03-29T17:04:08.438Z,101941.32
2019-03-29T17:06:57.252Z,101944.02
2019-03-29T17:09:46.101Z,101938.84
2019-03-29T17:12:42.754Z,101943.67
2019-03-29T17:15:24.462Z,101937.08
2019-03-29T17:18:13.367Z,101938.81
2019-03-29T17:21:02.347Z,101941.80
2019-03-29T17:23:53.113Z,101941.81
2019-03-29T17:26:43.332Z,101935.25
2019-03-29T17:29:32.214Z,101935.21
2019-03-29T17:32:21.690Z,101935.19
2019-03-29T17:35:11.691Z,101932.50
2019-03-29T17:38:00.549Z,101931.56
2019-03-29T17:40:49.451Z,101934.63
2019-03-29T17:43:38.305Z,101933.74
2019-03-29T17:46:26.923Z,101932.23
2019-03-29T17:49:15.791Z,101926.45
2019-03-29T17:52:04.622Z,101929.55
2019-03-29T17:54:53.495Z,101932.19
2019-03-29T17:57:42.370Z,101935.98
2019-03-29T18:00:31.345Z,101932.04
2019-03-29T18:03:20.226Z,101929.36
2019-03-29T18:06:09.063Z,101933.03
2019-03-29T18:08:57.912Z,101934.38
2019-03-29T18:11:46.775Z,101943.76
2019-03-29T18:14:28.561Z,101939.52
2019-03-29T18:17:17.395Z,101940.98
2019-03-29T18:20:27.135Z,101952.11
2019-03-29T18:23:15.992Z,101947.58
2019-03-29T18:26:04.882Z,101953.90
2019-03-29T18:28:37.772Z,101950.64
2019-03-29T18:31:25.069Z,101952.41
2019-03-29T18:34:13.932Z,101942.55
2019-03-29T18:37:02.930Z,101948.47
2019-03-29T18:39:54.837Z,101952.95
2019-03-29T18:42:42.430Z,101952.93
2019-03-29T18:45:31.353Z,101948.79
2019-03-29T18:48:20.225Z,101952.44
2019-03-29T18:51:09.040Z,101953.97
2019-03-29T18:53:57.909Z,101954.83
2019-03-29T18:56:47.004Z,101959.00
2019-03-29T18:59:37.338Z,101958.00
2019-03-29T19:05:34.179Z,101953.45
2019-03-29T19:08:23.041Z,101954.59
2019-03-29T19:11:30.990Z,101955.37
2019-03-29T19:14:19.957Z,101955.39
2019-03-29T19:17:08.826Z,101955.32
2019-03-29T19:19:57.645Z,101962.13
2019-03-29T19:22:46.639Z,101963.85
2019-03-29T19:25:35.491Z,101958.72
2019-03-29T19:28:24.436Z,101956.20
2019-03-29T19:31:13.282Z,101958.66
2019-03-29T19:34:02.112Z,101957.61
2019-03-29T19:36:50.967Z,101956.73
2019-03-29T19:39:39.798Z,101954.37
2019-03-29T19:42:28.663Z,101948.08
2019-03-29T19:48:45.985Z,101956.16
2019-03-29T19:51:53.948Z,101961.45
2019-03-29T19:54:43.149Z,101956.02
2019-03-29T19:57:32.044Z,101949.13
2019-03-29T20:00:41.766Z,101951.19
2019-03-29T20:03:30.682Z,101949.94
2019-03-29T20:06:19.561Z,101946.59
2019-03-29T20:12:25.231Z,101945.77
2019-03-29T20:15:07.583Z,101939.42
2019-03-29T20:18:15.522Z,101941.66
2019-03-29T20:21:04.351Z,101942.45
2019-03-29T20:23:53.216Z,101946.77
2019-03-29T20:27:01.101Z,101935.75
2019-03-29T20:29:49.956Z,101944.43
2019-03-29T20:32:38.781Z,101936.06
2019-03-29T20:35:27.710Z,101932.84
2019-03-29T20:38:16.673Z,101934.49
2019-03-29T20:41:05.515Z,101929.78
2019-03-29T20:43:54.350Z,101926.19
2019-03-29T20:46:43.227Z,101925.42
2019-03-29T20:49:32.050Z,101924.56
2019-03-29T20:52:20.916Z,101923.42
2019-03-29T20:55:09.806Z,101924.33
2019-03-29T20:57:58.742Z,101925.30
2019-03-29T21:00:47.593Z,101925.36
2019-03-29T21:03:36.450Z,101921.67
2019-03-29T21:06:25.300Z,101921.78
2019-03-29T21:09:14.160Z,101919.66
2019-03-29T21:12:03.033Z,101921.60
2019-03-29T21:14:44.452Z,101912.88
2019-03-29T21:17:33.320Z,101912.70
2019-03-29T21:20:41.307Z,101913.97
2019-03-29T21:23:30.138Z,101910.89
2019-03-29T21:26:19.018Z,101907.93
2019-03-29T21:29:26.971Z,101909.02
2019-03-29T21:32:15.822Z,101902.67
2019-03-29T21:38:19.999Z,101908.63
2019-03-29T21:41:08.931Z,101909.11
2019-03-29T21:43:57.785Z,101906.19
2019-03-29T21:46:46.694Z,101911.77
2019-03-29T21:49:35.533Z,101906.98
2019-03-29T21:52:24.369Z,101906.52
2019-03-29T21:58:21.061Z,101903.73
2019-03-29T22:01:09.936Z,101901.25
2019-03-29T22:03:58.832Z,101902.73
2019-03-29T22:06:47.683Z,101904.31
2019-03-29T22:12:30.562Z,101896.47
2019-03-29T22:15:19.480Z,101903.66
2019-03-29T22:18:01.682Z,101894.59
2019-03-29T22:20:50.527Z,101896.12
2019-03-29T22:23:39.432Z,101894.08
2019-03-29T22:26:28.313Z,101895.63
2019-03-29T22:29:17.184Z,101894.81
2019-03-29T22:32:06.009Z,101892.83
2019-03-29T22:34:54.863Z,101897.28
2019-03-29T22:37:43.713Z,101894.80
2019-03-29T22:40:32.532Z,101893.04
2019-03-29T22:43:21.408Z,101895.70
2019-03-29T22:46:10.246Z,101890.83
2019-03-29T22:48:59.084Z,101884.97
2019-03-29T22:51:47.908Z,101881.36
2019-03-29T22:54:36.757Z,101884.93
2019-03-29T22:57:25.559Z,101876.89
2019-03-29T23:03:30.842Z,101879.34
2019-03-29T23:06:19.748Z,101875.74
2019-03-29T23:09:11.655Z,101877.81
2019-03-29T23:11:59.300Z,101876.52
2019-03-29T23:14:48.151Z,101877.47
2019-03-29T23:17:29.771Z,101869.78
2019-03-29T23:20:18.649Z,101863.97
2019-03-29T23:23:07.473Z,101865.62
2019-03-29T23:25:56.315Z,101863.30
2019-03-29T23:28:45.138Z,101857.66
2019-03-29T23:31:33.982Z,101854.58
2019-03-29T23:34:22.811Z,101851.19
2019-03-29T23:37:11.641Z,101848.19
2019-03-29T23:40:19.531Z,101844.05
2019-03-29T23:43:08.367Z,101842.67
2019-03-29T23:45:57.219Z,101837.86
2019-03-29T23:48:46.046Z,101841.65
2019-03-29T23:51:34.906Z,101845.88
2019-03-29T23:54:23.711Z,101844.63
2019-03-29T23:57:12.582Z,101837.28
